Time;durP1;ratioP1;P1;durP2;ratioP2;P2;SDS_P1;SDS_P2;PMS_P1;PMS_P2;Temp;Humidity;BMP_temperature;BMP_pressure;BME280_temperature;BME280_humidity;BME280_pressure;Samples;Min_cycle;Max_cycle;Signal;HPM_P1;HPM_P2
2023/09/10 00:04:08;;;;;;;41.70;31.92;;;;;;;-147.65;100.00;57646.63;10446471;28;20037;-79
2023/09/10 00:09:09;;;;;;;49.38;36.05;;;;;;;-147.65;100.00;57646.63;10467555;28;20072;-79
2023/09/10 00:14:09;;;;;;;38.30;32.55;;;;;;;-147.65;100.00;57646.63;10443552;28;20044;-80
2023/09/10 00:19:12;;;;;;;40.00;29.73;;;;;;;-147.65;100.00;57646.63;10443954;28;20040;-78
2023/09/10 00:24:13;;;;;;;39.65;33.92;;;;;;;-147.65;100.00;57646.63;10426146;28;20041;-78
2023/09/10 00:29:13;;;;;;;41.92;32.88;;;;;;;-147.65;100.00;57646.63;10466072;28;20501;-79
2023/09/10 00:34:14;;;;;;;37.40;33.05;;;;;;;-147.65;100.00;57646.63;10443176;28;20049;-79
2023/09/10 00:39:14;;;;;;;42.83;34.92;;;;;;;-147.65;100.00;57646.63;10458395;28;20557;-78
2023/09/10 00:44:15;;;;;;;43.88;33.67;;;;;;;-147.65;100.00;57646.63;10434291;28;20116;-79
2023/09/10 00:49:16;;;;;;;34.78;31.05;;;;;;;-147.65;100.00;57646.63;10441864;28;20056;-78
2023/09/10 00:54:16;;;;;;;39.67;33.20;;;;;;;-147.65;100.00;57646.63;10440796;28;20553;-79
2023/09/10 00:59:17;;;;;;;45.97;35.97;;;;;;;-147.65;100.00;57646.63;10442820;28;20039;-78
2023/09/10 01:04:17;;;;;;;44.80;36.72;;;;;;;-147.65;100.00;57646.63;10476677;28;20449;-78
2023/09/10 01:09:18;;;;;;;46.22;33.92;;;;;;;-147.65;100.00;57646.63;10415799;28;20106;-78
2023/09/10 01:14:25;;;;;;;45.35;38.72;;;;;;;-147.65;100.00;57646.63;10433096;28;20570;-78
2023/09/10 01:19:59;;;;;;;47.80;39.90;;;;;;;-147.65;100.00;57646.63;10367783;28;20041;-78
2023/09/10 01:24:59;;;;;;;51.80;41.38;;;;;;;-147.65;100.00;57646.63;10438875;28;20055;-79
2023/09/10 01:30:00;;;;;;;60.45;45.10;;;;;;;-147.65;100.00;57646.63;10432375;28;20057;-79
2023/09/10 01:35:33;;;;;;;58.03;45.90;;;;;;;-147.65;100.00;57646.63;10448625;28;20041;-79
2023/09/10 01:40:35;;;;;;;58.55;47.17;;;;;;;-147.65;100.00;57646.63;10378958;28;20056;-79
2023/09/10 01:45:36;;;;;;;59.30;50.20;;;;;;;-147.65;100.00;57646.63;10466093;27;20078;-79
2023/09/10 01:50:37;;;;;;;55.38;43.47;;;;;;;-147.65;100.00;57646.63;10455578;28;20040;-79
2023/09/10 01:55:37;;;;;;;56.88;44.50;;;;;;;-147.65;100.00;57646.63;10442968;28;20037;-79
2023/09/10 02:00:38;;;;;;;56.53;46.28;;;;;;;-147.65;100.00;57646.63;10444585;28;20164;-79
2023/09/10 02:05:41;;;;;;;51.92;45.03;;;;;;;-147.65;100.00;57646.63;10478252;28;20120;-79
2023/09/10 02:10:42;;;;;;;68.50;50.65;;;;;;;-147.65;100.00;57646.63;10460908;28;20043;-78
2023/09/10 02:15:42;;;;;;;59.35;47.95;;;;;;;-147.65;100.00;57646.63;10447520;28;20392;-78
2023/09/10 02:20:43;;;;;;;57.92;45.55;;;;;;;-147.65;100.00;57646.63;10443311;28;20064;-79
2023/09/10 02:25:43;;;;;;;53.38;46.22;;;;;;;-147.65;100.00;57646.63;10451562;28;20068;-78
2023/09/10 02:30:44;;;;;;;59.47;50.05;;;;;;;-147.65;100.00;57646.63;10474521;28;20086;-79
2023/09/10 02:35:44;;;;;;;51.60;42.33;;;;;;;-147.65;100.00;57646.63;10454943;28;20036;-79
2023/09/10 02:40:45;;;;;;;62.28;46.78;;;;;;;-147.65;100.00;57646.63;10469046;28;20072;-79
2023/09/10 02:45:45;;;;;;;51.50;43.38;;;;;;;-147.65;100.00;57646.63;10466244;28;20080;-80
2023/09/10 02:50:46;;;;;;;50.67;40.33;;;;;;;-147.65;100.00;57646.63;10401348;28;20064;-79
2023/09/10 02:55:46;;;;;;;49.50;40.10;;;;;;;-147.65;100.00;57646.63;10367677;28;1272669;-78
2023/09/10 03:00:47;;;;;;;47.35;39.17;;;;;;;-147.65;100.00;57646.63;10478319;28;20059;-79
2023/09/10 03:05:47;;;;;;;44.28;38.22;;;;;;;-147.65;100.00;57646.63;10489557;28;20570;-79
2023/09/10 03:10:48;;;;;;;54.08;45.72;;;;;;;-147.65;100.00;57646.63;10461636;28;20120;-79
2023/09/10 03:15:48;;;;;;;69.03;50.72;;;;;;;-147.65;100.00;57646.63;10446066;28;20060;-79
2023/09/10 03:20:49;;;;;;;55.35;45.40;;;;;;;-147.65;100.00;57646.63;10450965;28;20582;-79
2023/09/10 03:25:49;;;;;;;51.17;40.90;;;;;;;-147.65;100.00;57646.63;10459030;28;20532;-79
2023/09/10 03:30:56;;;;;;;55.70;43.83;;;;;;;-147.65;100.00;57646.63;10448598;28;20076;-79
2023/09/10 03:35:56;;;;;;;52.55;42.30;;;;;;;-147.65;100.00;57646.63;10402664;28;20026;-81
2023/09/10 03:40:57;;;;;;;53.47;40.50;;;;;;;-147.65;100.00;57646.63;10455188;28;20036;-81
2023/09/10 03:45:57;;;;;;;56.15;45.20;;;;;;;-147.65;100.00;57646.63;10463250;28;20042;-81
2023/09/10 03:50:58;;;;;;;55.35;47.38;;;;;;;-147.65;100.00;57646.63;10458791;28;20069;-81
2023/09/10 03:55:58;;;;;;;65.75;54.10;;;;;;;-147.65;100.00;57646.63;10453787;28;20033;-81
2023/09/10 04:00:59;;;;;;;66.80;51.08;;;;;;;-147.65;100.00;57646.63;10458086;28;20071;-81
2023/09/10 04:05:59;;;;;;;66.43;50.47;;;;;;;-147.65;100.00;57646.63;10443031;28;20067;-81
2023/09/10 04:11:00;;;;;;;70.43;55.65;;;;;;;-147.65;100.00;57646.63;10432142;28;20044;-81
2023/09/10 04:16:01;;;;;;;66.07;52.20;;;;;;;-147.65;100.00;57646.63;10432346;28;20072;-81
2023/09/10 04:21:04;;;;;;;63.22;51.53;;;;;;;-147.65;100.00;57646.63;10451513;28;20041;-81
2023/09/10 04:26:05;;;;;;;54.97;45.65;;;;;;;-147.65;100.00;57646.63;10442051;28;20090;-81
2023/09/10 04:31:08;;;;;;;69.00;51.03;;;;;;;-147.65;100.00;57646.63;10442176;28;20037;-81
2023/09/10 04:36:08;;;;;;;68.60;55.33;;;;;;;-147.65;100.00;57646.63;10441054;28;20041;-81
2023/09/10 04:41:09;;;;;;;59.38;47.85;;;;;;;-147.65;100.00;57646.63;10467960;28;20040;-81
2023/09/10 04:46:09;;;;;;;73.10;56.33;;;;;;;-147.65;100.00;57646.63;10441392;28;20053;-81
2023/09/10 04:51:10;;;;;;;63.08;51.08;;;;;;;-147.65;100.00;57646.63;10462975;28;20052;-80
2023/09/10 04:56:10;;;;;;;82.65;57.67;;;;;;;-147.65;100.00;57646.63;10446180;28;20045;-79
2023/09/10 05:01:11;;;;;;;57.17;48.67;;;;;;;-147.65;100.00;57646.63;10440115;28;20041;-80
2023/09/10 05:06:13;;;;;;;53.03;45.00;;;;;;;-147.65;100.00;57646.63;10423968;28;20033;-80
2023/09/10 05:11:14;;;;;;;53.90;46.70;;;;;;;-147.65;100.00;57646.63;10446674;28;20054;-80
2023/09/10 05:16:15;;;;;;;61.50;50.37;;;;;;;-147.65;100.00;57646.63;10433153;28;20033;-79
2023/09/10 05:21:15;;;;;;;58.40;47.28;;;;;;;-147.65;100.00;57646.63;10433625;28;20045;-78
2023/09/10 05:26:16;;;;;;;57.83;47.03;;;;;;;-147.65;100.00;57646.63;10402406;28;20167;-77
2023/09/10 05:31:16;;;;;;;60.20;50.70;;;;;;;-147.65;100.00;57646.63;10416341;28;20544;-78
2023/09/10 05:36:17;;;;;;;66.15;51.03;;;;;;;-147.65;100.00;57646.63;10440989;28;20037;-78
2023/09/10 05:41:17;;;;;;;58.75;48.53;;;;;;;-147.65;100.00;57646.63;10442324;28;20116;-79
2023/09/10 05:46:18;;;;;;;59.17;47.60;;;;;;;-147.65;100.00;57646.63;10426349;28;20440;-79
2023/09/10 05:51:18;;;;;;;68.78;51.55;;;;;;;-147.65;100.00;57646.63;10422265;28;20068;-79
2023/09/10 05:56:19;;;;;;;65.10;50.03;;;;;;;-147.65;100.00;57646.63;10411800;28;20128;-80
2023/09/10 06:01:19;;;;;;;56.95;46.33;;;;;;;-147.65;100.00;57646.63;10389934;28;20044;-79
2023/09/10 06:06:20;;;;;;;46.42;41.25;;;;;;;-147.65;100.00;57646.63;10406214;28;20116;-79
2023/09/10 06:11:20;;;;;;;36.40;28.60;;;;;;;-147.65;100.00;57646.63;10433307;28;20034;-80
2023/09/10 06:16:21;;;;;;;23.23;19.97;;;;;;;-147.65;100.00;57646.63;10402955;28;20539;-80
2023/09/10 06:21:22;;;;;;;22.13;19.23;;;;;;;-147.65;100.00;57646.63;10391789;28;20041;-79
2023/09/10 06:26:22;;;;;;;21.60;17.07;;;;;;;-147.65;100.00;57646.63;10405600;28;20042;-80
2023/09/10 06:31:23;;;;;;;21.43;15.37;;;;;;;-147.65;100.00;57646.63;10420612;28;20466;-81
2023/09/10 06:36:23;;;;;;;18.20;14.23;;;;;;;-147.65;100.00;57646.63;10427475;28;20037;-82
2023/09/10 06:41:24;;;;;;;18.27;13.83;;;;;;;-147.65;100.00;57646.63;10391727;28;20114;-81
2023/09/10 06:46:24;;;;;;;15.30;13.67;;;;;;;-147.65;100.00;57646.63;10392972;28;20944;-79
2023/09/10 06:51:27;;;;;;;16.77;12.40;;;;;;;-147.65;100.00;57646.63;10408910;28;20037;-81
2023/09/10 06:56:29;;;;;;;20.20;13.15;;;;;;;-147.65;100.00;57646.63;10390539;28;20041;-80
2023/09/10 07:01:30;;;;;;;14.73;11.27;;;;;;;-147.65;100.00;57646.63;10404253;28;20100;-82
2023/09/10 07:06:30;;;;;;;15.83;11.73;;;;;;;-147.65;100.00;57646.63;10431533;28;20048;-78
2023/09/10 07:11:31;;;;;;;15.13;12.97;;;;;;;-147.65;100.00;57646.63;10401857;28;20048;-79
2023/09/10 07:16:34;;;;;;;16.07;12.43;;;;;;;-147.65;100.00;57646.63;10426284;28;20055;-79
2023/09/10 07:21:34;;;;;;;16.52;12.65;;;;;;;-147.65;100.00;57646.63;10432191;28;20497;-79
2023/09/10 07:26:38;;;;;;;15.20;12.57;;;;;;;-147.65;100.00;57646.63;10428238;28;20041;-78
2023/09/10 07:31:39;;;;;;;18.55;11.18;;;;;;;-147.65;100.00;57646.63;10438278;28;20041;-78
2023/09/10 07:36:40;;;;;;;18.00;10.70;;;;;;;-147.65;100.00;57646.63;10388639;28;20470;-78
2023/09/10 07:41:41;;;;;;;;;;;;;;;-147.65;100.00;57646.63;10444701;28;20367;-78
2023/09/10 07:46:41;;;;;;;18.17;10.87;;;;;;;-147.65;100.00;57646.63;10467859;28;20299;-78
2023/09/10 07:51:42;;;;;;;11.05;8.68;;;;;;;-147.65;100.00;57646.63;10428675;28;20387;-80
2023/09/10 07:56:45;;;;;;;13.77;8.60;;;;;;;-147.65;100.00;57646.63;10426086;28;22701;-79
2023/09/10 08:01:46;;;;;;;14.18;9.77;;;;;;;-147.65;100.00;57646.63;10439765;28;20053;-81
2023/09/10 08:06:46;;;;;;;;;;;;;;;-147.65;100.00;57646.63;10428925;28;20071;-78
2023/09/10 08:11:47;;;;;;;21.87;9.03;;;;;;;-147.65;100.00;57646.63;10452172;28;19920;-79
2023/09/10 08:16:47;;;;;;;;;;;;;;;-147.65;100.00;57646.63;10427760;28;20045;-79
2023/09/10 08:21:51;;;;;;;17.13;9.43;;;;;;;-147.65;100.00;57646.63;10450615;28;19921;-79
2023/09/10 08:26:52;;;;;;;12.02;8.88;;;;;;;-147.65;100.00;57646.63;10426519;28;20033;-77
2023/09/10 08:31:52;;;;;;;11.73;8.68;;;;;;;-147.65;100.00;57646.63;10424780;28;20452;-79
2023/09/10 08:36:53;;;;;;;13.07;7.90;;;;;;;-147.65;100.00;57646.63;10443532;28;20032;-80
2023/09/10 08:42:06;;;;;;;17.25;8.63;;;;;;;-147.65;100.00;57646.63;10434780;28;20482;-80
2023/09/10 08:47:07;;;;;;;17.80;8.25;;;;;;;-147.65;100.00;57646.63;10414771;28;20060;-80
2023/09/10 08:52:07;;;;;;;13.48;8.85;;;;;;;-147.65;100.00;57646.63;10440694;28;20044;-79
2023/09/10 08:57:08;;;;;;;10.35;7.82;;;;;;;-147.65;100.00;57646.63;10403625;28;20428;-79
2023/09/10 09:02:09;;;;;;;10.00;7.40;;;;;;;-147.65;100.00;57646.63;10477073;28;20045;-79
2023/09/10 09:07:11;;;;;;;14.55;7.72;;;;;;;-147.65;100.00;57646.63;10462790;28;20561;-80
2023/09/10 09:12:12;;;;;;;16.50;9.48;;;;;;;-147.65;100.00;57646.63;10435647;28;20109;-78
2023/09/10 09:17:13;;;;;;;20.90;10.55;;;;;;;-147.65;100.00;57646.63;10438741;28;20113;-78
2023/09/10 09:22:15;;;;;;;12.95;6.93;;;;;;;-147.65;100.00;57646.63;10462301;28;20041;-77
2023/09/10 09:27:16;;;;;;;20.98;8.13;;;;;;;-147.65;100.00;57646.63;10460456;28;20094;-77
2023/09/10 09:32:16;;;;;;;11.13;5.93;;;;;;;-147.65;100.00;57646.63;10429245;28;20443;-77
2023/09/10 09:37:19;;;;;;;16.88;8.00;;;;;;;-147.65;100.00;57646.63;10457250;28;20091;-77
2023/09/10 09:42:22;;;;;;;14.75;7.95;;;;;;;-147.65;100.00;57646.63;10492775;28;20118;-78
2023/09/10 09:47:23;;;;;;;13.02;6.95;;;;;;;-147.65;100.00;57646.63;10430507;28;20412;-78
2023/09/10 09:52:24;;;;;;;11.88;6.43;;;;;;;-147.65;100.00;57646.63;10406638;28;20033;-77
2023/09/10 09:57:25;;;;;;;14.00;6.47;;;;;;;-147.65;100.00;57646.63;10459082;28;20044;-77
2023/09/10 10:02:25;;;;;;;13.77;6.57;;;;;;;-147.65;100.00;57646.63;10444771;28;20688;-78
2023/09/10 10:07:28;;;;;;;13.90;6.63;;;;;;;-147.65;100.00;57646.63;10450362;28;20052;-78
2023/09/10 10:12:28;;;;;;;9.63;5.55;;;;;;;-147.65;100.00;57646.63;10466308;28;20032;-78
2023/09/10 10:17:29;;;;;;;20.50;6.30;;;;;;;-147.65;100.00;57646.63;10455878;28;20743;-79
2023/09/10 10:22:29;;;;;;;14.07;6.28;;;;;;;-147.65;100.00;57646.63;10446084;28;20072;-79
2023/09/10 10:27:32;;;;;;;12.77;6.65;;;;;;;-147.65;100.00;57646.63;10441791;28;20062;-77
2023/09/10 10:32:41;;;;;;;17.42;7.18;;;;;;;-147.65;100.00;57646.63;10461420;28;20028;-77
2023/09/10 10:37:51;;;;;;;16.10;6.40;;;;;;;-147.65;100.00;57646.63;10435145;28;20087;-78
2023/09/10 10:42:58;;;;;;;13.95;6.15;;;;;;;-147.65;100.00;57646.63;10466714;28;20389;-77
2023/09/10 10:47:59;;;;;;;9.65;5.50;;;;;;;-147.65;100.00;57646.63;10413970;28;20035;-77
2023/09/10 10:53:07;;;;;;;9.00;5.90;;;;;;;-147.65;100.00;57646.63;10406490;28;20078;-78
2023/09/10 10:58:07;;;;;;;19.23;6.63;;;;;;;-147.65;100.00;57646.63;10412613;28;20045;-78
2023/09/10 11:03:13;;;;;;;12.35;5.68;;;;;;;-147.65;100.00;57646.63;10450313;28;20045;-77
2023/09/10 11:08:33;;;;;;;12.68;5.32;;;;;;;-147.65;100.00;57646.63;10420154;28;20045;-77
2023/09/10 11:13:34;;;;;;;11.50;5.78;;;;;;;-147.65;100.00;57646.63;10435233;28;20038;-76
2023/09/10 11:18:34;;;;;;;11.25;5.57;;;;;;;-147.65;100.00;57646.63;10442133;28;20040;-77
2023/09/10 11:23:39;;;;;;;9.43;5.05;;;;;;;-147.65;100.00;57646.63;10438036;28;20044;-76
2023/09/10 11:28:52;;;;;;;16.35;6.85;;;;;;;-147.65;100.00;57646.63;10452515;28;20033;-77
2023/09/10 11:33:56;;;;;;;18.88;6.85;;;;;;;-147.65;100.00;57646.63;10432355;28;20151;-77
2023/09/10 11:38:57;;;;;;;9.77;5.03;;;;;;;-147.65;100.00;57646.63;10441306;28;20041;-78
2023/09/10 11:43:57;;;;;;;9.35;4.47;;;;;;;-147.65;100.00;57646.63;10431848;28;20076;-78
2023/09/10 11:48:58;;;;;;;14.95;5.22;;;;;;;-147.65;100.00;57646.63;10461829;28;20045;-79
2023/09/10 11:53:59;;;;;;;12.50;5.25;;;;;;;-147.65;100.00;57646.63;10431632;28;20072;-79
2023/09/10 11:59:00;;;;;;;9.90;4.95;;;;;;;-147.65;100.00;57646.63;10449467;28;20094;-80
2023/09/10 12:04:01;;;;;;;10.70;5.07;;;;;;;-147.65;100.00;57646.63;10469627;28;20041;-80
2023/09/10 12:09:02;;;;;;;15.13;5.43;;;;;;;-147.65;100.00;57646.63;10463584;28;20569;-78
2023/09/10 12:14:03;;;;;;;10.38;6.20;;;;;;;-147.65;100.00;57646.63;10445553;28;20032;-77
2023/09/10 12:19:03;;;;;;;10.27;6.40;;;;;;;-147.65;100.00;57646.63;10440056;28;20119;-78
2023/09/10 12:24:04;;;;;;;11.35;5.70;;;;;;;-147.65;100.00;57646.63;10455380;28;20035;-78
2023/09/10 12:29:05;;;;;;;7.05;5.35;;;;;;;-147.65;100.00;57646.63;10430349;28;21531;-81
2023/09/10 12:34:07;;;;;;;6.20;5.05;;;;;;;-147.65;100.00;57646.63;10425491;28;20056;-79
2023/09/10 12:39:20;;;;;;;7.30;5.40;;;;;;;-147.65;100.00;57646.63;10412181;28;20037;-79
2023/09/10 12:44:21;;;;;;;8.95;5.65;;;;;;;-147.65;100.00;57646.63;10389052;28;20034;-81
2023/09/10 12:49:21;;;;;;;11.68;5.65;;;;;;;-147.65;100.00;57646.63;10421309;28;20032;-82
2023/09/10 12:54:22;;;;;;;11.27;5.63;;;;;;;-147.65;100.00;57646.63;10458021;28;20045;-78
2023/09/10 12:59:22;;;;;;;8.80;6.68;;;;;;;-147.65;100.00;57646.63;10468618;28;20041;-79
2023/09/10 13:04:23;;;;;;;15.80;5.95;;;;;;;-147.65;100.00;57646.63;10439609;28;20056;-79
2023/09/10 13:09:23;;;;;;;10.15;6.28;;;;;;;-147.65;100.00;57646.63;10431111;28;20400;-78
2023/09/10 13:14:24;;;;;;;13.00;7.22;;;;;;;-147.65;100.00;57646.63;10462902;28;20573;-79
2023/09/10 13:19:24;;;;;;;9.25;5.57;;;;;;;-147.65;100.00;57646.63;10450038;28;20043;-81
2023/09/10 13:24:25;;;;;;;12.23;8.85;;;;;;;-147.65;100.00;57646.63;10420463;28;20079;-78
2023/09/10 13:29:25;;;;;;;10.35;5.90;;;;;;;-147.65;100.00;57646.63;10439866;28;20730;-79
2023/09/10 13:34:26;;;;;;;11.32;5.80;;;;;;;-147.65;100.00;57646.63;10434581;28;20107;-80
2023/09/10 13:39:27;;;;;;;9.60;5.43;;;;;;;-147.65;100.00;57646.63;10404784;28;20672;-77
2023/09/10 13:44:28;;;;;;;9.75;5.35;;;;;;;-147.65;100.00;57646.63;10442093;28;20039;-77
2023/09/10 13:49:29;;;;;;;10.00;5.05;;;;;;;-147.65;100.00;57646.63;10430379;28;20037;-79
2023/09/10 13:54:29;;;;;;;8.52;6.40;;;;;;;-147.65;100.00;57646.63;10436828;28;20041;-81
2023/09/10 13:59:30;;;;;;;10.98;5.00;;;;;;;-147.65;100.00;57646.63;10451160;28;20056;-76
2023/09/10 14:04:31;;;;;;;18.02;5.63;;;;;;;-147.65;100.00;57646.63;10463404;28;20138;-80
2023/09/10 14:09:32;;;;;;;10.55;5.35;;;;;;;-147.65;100.00;57646.63;10437498;28;20052;-79
2023/09/10 14:14:33;;;;;;;10.02;5.82;;;;;;;-147.65;100.00;57646.63;10471015;28;20029;-77
2023/09/10 14:19:33;;;;;;;11.25;5.00;;;;;;;-147.65;100.00;57646.63;10465941;28;20041;-79
2023/09/10 14:24:34;;;;;;;10.68;5.60;;;;;;;-147.65;100.00;57646.63;10441435;28;20044;-77
2023/09/10 14:29:34;;;;;;;10.20;5.35;;;;;;;-147.65;100.00;57646.63;10502631;28;20032;-78
2023/09/10 14:34:35;;;;;;;8.23;5.35;;;;;;;-147.65;100.00;57646.63;10460359;28;20507;-78
2023/09/10 14:39:37;;;;;;;12.55;5.65;;;;;;;-147.65;100.00;57646.63;10417782;28;20038;-78
2023/09/10 14:44:38;;;;;;;14.10;5.78;;;;;;;-147.65;100.00;57646.63;10477893;28;20037;-77
2023/09/10 14:49:38;;;;;;;11.27;5.72;;;;;;;-147.65;100.00;57646.63;10461095;28;20516;-77
2023/09/10 14:54:39;;;;;;;11.02;5.50;;;;;;;-147.65;100.00;57646.63;10432957;28;20041;-77
2023/09/10 14:59:39;;;;;;;9.02;5.03;;;;;;;-147.65;100.00;57646.63;10421075;28;20069;-78
2023/09/10 15:04:40;;;;;;;11.00;5.68;;;;;;;-147.65;100.00;57646.63;10398835;28;20128;-77
2023/09/10 15:09:40;;;;;;;14.15;6.45;;;;;;;-147.65;100.00;57646.63;10411552;28;20033;-78
2023/09/10 15:14:41;;;;;;;10.00;4.93;;;;;;;-147.65;100.00;57646.63;10470653;28;20498;-76
2023/09/10 15:19:41;;;;;;;12.38;6.03;;;;;;;-147.65;100.00;57646.63;10427024;28;20068;-76
2023/09/10 15:24:42;;;;;;;11.10;5.45;;;;;;;-147.65;100.00;57646.63;10427095;28;20457;-76
2023/09/10 15:29:42;;;;;;;11.43;6.00;;;;;;;-147.65;100.00;57646.63;10457036;28;20069;-76
2023/09/10 15:34:43;;;;;;;12.18;5.78;;;;;;;-147.65;100.00;57646.63;10431853;28;20086;-77
2023/09/10 15:39:43;;;;;;;14.07;6.28;;;;;;;-147.65;100.00;57646.63;10440338;28;20041;-77
2023/09/10 15:44:44;;;;;;;;;;;;;;;-147.65;100.00;57646.63;10440410;28;20075;-79
2023/09/10 15:49:44;;;;;;;8.43;6.03;;;;;;;-147.65;100.00;57646.63;10440174;28;20015;-77
2023/09/10 15:54:45;;;;;;;9.10;5.53;;;;;;;-147.65;100.00;57646.63;10422352;28;20097;-76
2023/09/10 15:59:46;;;;;;;15.27;7.05;;;;;;;-147.65;100.00;57646.63;10434571;28;20280;-77
2023/09/10 16:04:47;;;;;;;9.75;6.72;;;;;;;-147.65;100.00;57646.63;10427050;28;20064;-78
2023/09/10 16:09:47;;;;;;;10.80;6.67;;;;;;;-147.65;100.00;57646.63;10436831;28;20037;-78
2023/09/10 16:14:48;;;;;;;9.43;6.20;;;;;;;-147.65;100.00;57646.63;10481429;28;20037;-81
2023/09/10 16:19:48;;;;;;;14.27;5.97;;;;;;;-147.65;100.00;57646.63;10475392;28;20621;-79
2023/09/10 16:24:49;;;;;;;11.03;7.03;;;;;;;-147.65;100.00;57646.63;10443448;28;20037;-79
2023/09/10 16:29:50;;;;;;;14.93;6.57;;;;;;;-147.65;100.00;57646.63;10446486;28;20043;-78
2023/09/10 16:34:50;;;;;;;9.40;6.80;;;;;;;-147.65;100.00;57646.63;10456930;28;20047;-78
2023/09/10 16:39:51;;;;;;;8.47;6.17;;;;;;;-147.65;100.00;57646.63;10438341;28;20124;-78
2023/09/10 16:44:52;;;;;;;9.37;6.10;;;;;;;-147.65;100.00;57646.63;10454830;28;20053;-78
2023/09/10 16:49:52;;;;;;;12.60;7.90;;;;;;;-147.65;100.00;57646.63;10452244;28;20049;-78
2023/09/10 16:54:53;;;;;;;26.77;16.87;;;;;;;-147.65;100.00;57646.63;10441509;28;20041;-76
2023/09/10 16:59:53;;;;;;;41.17;27.87;;;;;;;-147.65;100.00;57646.63;10396648;28;20033;-76
2023/09/10 17:04:54;;;;;;;21.20;11.70;;;;;;;-147.65;100.00;57646.63;10397366;28;20481;-77
2023/09/10 17:09:54;;;;;;;20.53;7.83;;;;;;;-147.65;100.00;57646.63;10406065;28;20056;-77
2023/09/10 17:14:55;;;;;;;15.47;8.23;;;;;;;-147.65;100.00;57646.63;10419952;28;20425;-77
2023/09/10 17:19:55;;;;;;;18.93;6.47;;;;;;;-147.65;100.00;57646.63;10469821;28;20044;-76
2023/09/10 17:24:56;;;;;;;15.27;8.40;;;;;;;-147.65;100.00;57646.63;10455032;28;20073;-76
2023/09/10 17:29:57;;;;;;;11.80;6.20;;;;;;;-147.65;100.00;57646.63;10439569;28;20128;-76
2023/09/10 17:34:58;;;;;;;15.10;7.47;;;;;;;-147.65;100.00;57646.63;10460258;28;20044;-75
2023/09/10 17:39:58;;;;;;;9.63;6.55;;;;;;;-147.65;100.00;57646.63;10448033;28;20037;-75
2023/09/10 17:45:00;;;;;;;12.70;7.67;;;;;;;-147.65;100.00;57646.63;10452029;28;20040;-76
2023/09/10 17:50:01;;;;;;;22.95;16.48;;;;;;;-147.65;100.00;57646.63;10462751;28;20068;-75
2023/09/10 17:55:04;;;;;;;10.23;7.87;;;;;;;-147.65;100.00;57646.63;10420752;28;20048;-76
2023/09/10 18:00:06;;;;;;;27.35;20.98;;;;;;;-147.65;100.00;57646.63;10430681;28;20038;-77
2023/09/10 18:05:07;;;;;;;20.33;11.00;;;;;;;-147.65;100.00;57646.63;10387626;28;20038;-76
2023/09/10 18:10:08;;;;;;;15.07;8.93;;;;;;;-147.65;100.00;57646.63;10392511;28;20041;-76
2023/09/10 18:15:08;;;;;;;12.40;9.30;;;;;;;-147.65;100.00;57646.63;10410089;28;20048;-77
2023/09/10 18:20:10;;;;;;;14.33;9.40;;;;;;;-147.65;100.00;57646.63;10407168;28;20493;-77
2023/09/10 18:25:10;;;;;;;16.77;9.85;;;;;;;-147.65;100.00;57646.63;10439878;28;20493;-76
2023/09/10 18:30:12;;;;;;;13.97;10.43;;;;;;;-147.65;100.00;57646.63;10466838;28;20055;-77
2023/09/10 18:35:12;;;;;;;;;;;;;;;-147.65;100.00;57646.63;10437421;28;20064;-77
2023/09/10 18:40:13;;;;;;;18.25;10.00;;;;;;;-147.65;100.00;57646.63;10446404;28;20003;-77
2023/09/10 18:45:14;;;;;;;13.40;9.27;;;;;;;-147.65;100.00;57646.63;10431206;28;20033;-76
2023/09/10 18:50:14;;;;;;;14.00;9.30;;;;;;;-147.65;100.00;57646.63;10472839;28;20033;-76
2023/09/10 18:55:18;;;;;;;17.73;9.93;;;;;;;-147.65;100.00;57646.63;10463468;28;20152;-76
2023/09/10 19:00:19;;;;;;;20.27;11.97;;;;;;;-147.65;100.00;57646.63;10434745;28;20034;-76
2023/09/10 19:05:19;;;;;;;14.57;9.30;;;;;;;-147.65;100.00;57646.63;10439244;28;20037;-77
2023/09/10 19:10:20;;;;;;;14.00;10.43;;;;;;;-147.65;100.00;57646.63;10476368;28;20087;-76
2023/09/10 19:15:20;;;;;;;15.33;11.67;;;;;;;-147.65;100.00;57646.63;10444280;28;20040;-76
2023/09/10 19:20:23;;;;;;;14.00;10.50;;;;;;;-147.65;100.00;57646.63;10454745;28;20040;-76
2023/09/10 19:25:24;;;;;;;16.52;10.82;;;;;;;-147.65;100.00;57646.63;10451041;28;20044;-76
2023/09/10 19:30:24;;;;;;;15.10;11.23;;;;;;;-147.65;100.00;57646.63;10455570;28;20080;-76
2023/09/10 19:35:25;;;;;;;18.07;11.93;;;;;;;-147.65;100.00;57646.63;10445866;28;20045;-77
2023/09/10 19:40:25;;;;;;;21.20;12.50;;;;;;;-147.65;100.00;57646.63;10464696;28;20132;-76
2023/09/10 19:45:26;;;;;;;26.00;12.63;;;;;;;-147.65;100.00;57646.63;10453373;28;20037;-75
2023/09/10 19:50:26;;;;;;;14.87;11.27;;;;;;;-147.65;100.00;57646.63;10446441;28;20035;-76
2023/09/10 19:55:27;;;;;;;16.80;11.93;;;;;;;-147.65;100.00;57646.63;10444260;28;20072;-76
2023/09/10 20:00:28;;;;;;;19.27;13.03;;;;;;;-147.65;100.00;57646.63;10443411;28;20047;-76
2023/09/10 20:05:29;;;;;;;26.33;12.93;;;;;;;-147.65;100.00;57646.63;10440853;28;20084;-76
2023/09/10 20:10:29;;;;;;;18.83;13.43;;;;;;;-147.65;100.00;57646.63;10435308;28;20095;-76
2023/09/10 20:15:30;;;;;;;20.63;12.20;;;;;;;-147.65;100.00;57646.63;10433179;28;20040;-76
2023/09/10 20:20:30;;;;;;;15.67;12.20;;;;;;;-147.65;100.00;57646.63;10443788;28;20075;-76
2023/09/10 20:25:31;;;;;;;18.07;15.13;;;;;;;-147.65;100.00;57646.63;10460520;28;20040;-76
2023/09/10 20:30:31;;;;;;;19.13;15.00;;;;;;;-147.65;100.00;57646.63;10452213;28;20456;-76
2023/09/10 20:35:38;;;;;;;18.27;14.07;;;;;;;-147.65;100.00;57646.63;10468533;28;20098;-76
2023/09/10 20:40:38;;;;;;;22.17;13.82;;;;;;;-147.65;100.00;57646.63;10460322;28;20496;-76
2023/09/10 20:45:39;;;;;;;22.63;14.33;;;;;;;-147.65;100.00;57646.63;10461510;28;20037;-76
2023/09/10 20:50:39;;;;;;;32.00;17.13;;;;;;;-147.65;100.00;57646.63;10458693;28;20041;-76
2023/09/10 20:55:41;;;;;;;27.87;17.73;;;;;;;-147.65;100.00;57646.63;10461652;28;20123;-77
2023/09/10 21:00:41;;;;;;;;;;;;;;;-147.65;100.00;57646.63;10459609;28;20487;-76
2023/09/10 21:05:42;;;;;;;26.17;17.07;;;;;;;-147.65;100.00;57646.63;10436513;28;20007;-76
2023/09/10 21:10:42;;;;;;;20.20;15.77;;;;;;;-147.65;100.00;57646.63;10435250;28;20342;-77
2023/09/10 21:15:43;;;;;;;25.77;14.27;;;;;;;-147.65;100.00;57646.63;10424486;28;20137;-76
2023/09/10 21:20:44;;;;;;;20.03;15.90;;;;;;;-147.65;100.00;57646.63;10492350;28;20128;-77
2023/09/10 21:25:44;;;;;;;23.30;18.00;;;;;;;-147.65;100.00;57646.63;10462325;28;20070;-76
2023/09/10 21:30:48;;;;;;;21.23;17.80;;;;;;;-147.65;100.00;57646.63;10455321;28;20045;-76
2023/09/10 21:35:49;;;;;;;21.63;15.93;;;;;;;-147.65;100.00;57646.63;10479721;28;20044;-76
2023/09/10 21:40:49;;;;;;;19.95;16.77;;;;;;;-147.65;100.00;57646.63;10452295;28;20112;-77
2023/09/10 21:45:50;;;;;;;24.37;18.57;;;;;;;-147.65;100.00;57646.63;10456128;28;20040;-77
2023/09/10 21:50:50;;;;;;;21.00;17.23;;;;;;;-147.65;100.00;57646.63;10435354;28;20041;-76
2023/09/10 21:55:51;;;;;;;22.77;19.40;;;;;;;-147.65;100.00;57646.63;10444462;28;20131;-77
2023/09/10 22:00:51;;;;;;;26.80;16.10;;;;;;;-147.65;100.00;57646.63;10440884;28;20040;-76
2023/09/10 22:05:52;;;;;;;25.47;17.83;;;;;;;-147.65;100.00;57646.63;10445311;28;20041;-77
2023/09/10 22:11:04;;;;;;;35.43;17.03;;;;;;;-147.65;100.00;57646.63;10444191;28;20124;-77
2023/09/10 22:16:04;;;;;;;25.50;15.27;;;;;;;-147.65;100.00;57646.63;10428305;28;20036;-77